Time;durP1;ratioP1;P1;durP2;ratioP2;P2;SDS_P1;SDS_P2;PMS_P1;PMS_P2;Temp;Humidity;BMP_temperature;BMP_pressure;BME280_temperature;BME280_humidity;BME280_pressure;Samples;Min_cycle;Max_cycle;Signal;HPM_P1;HPM_P2
2022/08/18 00:02:25;;;;;;;7.65;6.85;;;19.00;99.90;;;;;;5003544;28;20117;-76
2022/08/18 00:04:52;;;;;;;8.45;7.55;;;19.00;99.90;;;;;;5005762;28;20091;-77
2022/08/18 00:07:24;;;;;;;7.88;7.07;;;18.90;99.90;;;;;;5006750;28;20099;-75
2022/08/18 00:09:50;;;;;;;7.20;6.50;;;18.90;99.90;;;;;;5004167;28;20053;-76
2022/08/18 00:12:39;;;;;;;8.90;6.68;;;18.70;99.90;;;;;;5007526;28;20041;-75
2022/08/18 00:15:08;;;;;;;8.48;6.35;;;18.60;99.90;;;;;;5009797;28;20125;-75
2022/08/18 00:17:35;;;;;;;7.90;6.83;;;18.50;99.90;;;;;;5006782;28;20022;-77
2022/08/18 00:20:03;;;;;;;9.48;6.53;;;18.50;99.90;;;;;;5006999;28;20034;-77
2022/08/18 00:22:28;;;;;;;7.43;6.70;;;18.40;99.90;;;;;;5011512;28;20049;-77
2022/08/18 00:24:56;;;;;;;7.60;6.93;;;18.40;99.90;;;;;;5017790;28;20038;-76
2022/08/18 00:27:24;;;;;;;7.30;6.57;;;18.40;99.90;;;;;;5011511;28;20116;-76
2022/08/18 00:29:52;;;;;;;8.50;6.82;;;18.40;99.90;;;;;;5010710;28;20036;-75
2022/08/18 00:32:24;;;;;;;7.55;6.32;;;18.30;99.90;;;;;;5011465;28;20200;-75
2022/08/18 00:34:51;;;;;;;7.18;6.50;;;18.30;99.90;;;;;;5006719;28;20057;-74
2022/08/18 00:37:17;;;;;;;7.75;6.28;;;18.30;99.90;;;;;;5015207;28;20037;-76
2022/08/18 00:39:43;;;;;;;8.65;5.78;;;18.20;99.90;;;;;;5014032;28;20478;-75
2022/08/18 00:42:28;;;;;;;7.43;6.70;;;18.20;99.90;;;;;;5016030;28;20026;-74
2022/08/18 00:44:55;;;;;;;9.48;6.28;;;18.20;99.90;;;;;;5014257;28;20517;-76
2022/08/18 00:47:21;;;;;;;7.63;6.80;;;18.20;99.90;;;;;;5014599;28;20116;-76
2022/08/18 00:49:50;;;;;;;6.22;5.63;;;18.20;99.90;;;;;;5014102;28;20042;-75
2022/08/18 00:52:16;;;;;;;7.53;6.82;;;18.20;99.90;;;;;;5011388;28;20030;-75
2022/08/18 00:54:44;;;;;;;7.82;7.00;;;18.20;99.90;;;;;;5014129;28;20034;-73
2022/08/18 00:57:11;;;;;;;7.57;6.82;;;18.20;99.90;;;;;;5014320;28;20081;-74
2022/08/18 00:59:44;;;;;;;7.07;6.38;;;18.30;99.90;;;;;;5015532;28;20121;-75
2022/08/18 01:02:32;;;;;;;6.75;6.15;;;18.30;99.90;;;;;;5014852;28;20030;-74
2022/08/18 01:05:07;;;;;;;8.85;6.70;;;18.30;99.90;;;;;;5012835;28;20030;-74
2022/08/18 01:07:43;;;;;;;8.43;6.32;;;18.30;99.90;;;;;;5012488;28;20105;-73
2022/08/18 01:10:09;;;;;;;7.38;6.68;;;18.30;99.90;;;;;;5014372;28;20078;-74
2022/08/18 01:12:36;;;;;;;7.13;6.53;;;18.30;99.90;;;;;;5014790;28;20037;-76
2022/08/18 01:15:02;;;;;;;6.85;6.00;;;18.20;99.90;;;;;;5014391;28;20039;-74
2022/08/18 01:23:15;;;;;;;6.32;5.72;;;18.20;99.90;;;;;;5012634;28;20612;-74
2022/08/18 01:26:02;;;;;;;8.60;6.10;;;18.20;99.90;;;;;;5011276;28;20036;-74
2022/08/18 01:28:34;;;;;;;6.55;5.95;;;18.20;99.90;;;;;;5014381;28;20045;-76
2022/08/18 01:31:00;;;;;;;7.30;6.60;;;18.30;99.90;;;;;;5013441;28;20478;-76
2022/08/18 01:33:35;;;;;;;7.38;6.70;;;18.20;99.90;;;;;;5014721;28;20030;-75
2022/08/18 01:36:13;;;;;;;6.78;6.18;;;18.20;99.90;;;;;;5012967;28;20486;-76
2022/08/18 01:38:39;;;;;;;8.07;7.07;;;18.20;99.90;;;;;;5013917;28;20421;-75
2022/08/18 01:41:06;;;;;;;6.55;5.95;;;18.20;99.90;;;;;;5010129;28;20114;-76
2022/08/18 01:43:33;;;;;;;6.80;6.10;;;18.20;99.90;;;;;;5012745;28;20033;-76
2022/08/18 01:46:00;;;;;;;6.85;5.70;;;18.10;99.90;;;;;;5013264;28;20030;-76
2022/08/18 01:48:26;;;;;;;6.13;5.55;;;18.10;99.90;;;;;;5013318;28;20044;-77
2022/08/18 01:50:55;;;;;;;7.47;5.97;;;18.10;99.90;;;;;;5018583;28;20026;-76
2022/08/18 01:53:21;;;;;;;7.05;6.40;;;18.10;99.90;;;;;;5014247;28;20065;-77
2022/08/18 01:55:47;;;;;;;6.82;6.18;;;18.10;99.90;;;;;;5013452;28;20065;-74
2022/08/18 01:58:13;;;;;;;6.70;6.10;;;18.10;99.90;;;;;;5009806;28;20108;-76
2022/08/18 02:00:40;;;;;;;6.60;6.00;;;18.00;99.90;;;;;;5013288;28;20026;-76
2022/08/18 02:03:10;;;;;;;6.60;6.00;;;18.00;99.90;;;;;;5012886;28;20462;-76
2022/08/18 02:05:42;;;;;;;6.53;5.97;;;18.00;99.90;;;;;;5013584;28;20051;-75
2022/08/18 02:08:11;;;;;;;6.07;5.53;;;18.00;99.90;;;;;;5012741;28;20261;-76
2022/08/18 02:10:37;;;;;;;8.02;6.38;;;18.00;99.90;;;;;;5013100;28;20022;-76
2022/08/18 02:13:03;;;;;;;6.63;6.03;;;18.00;99.90;;;;;;5010974;28;20470;-76
2022/08/18 02:15:29;;;;;;;6.55;5.95;;;18.00;99.90;;;;;;5011127;28;20049;-76
2022/08/18 02:17:55;;;;;;;6.68;6.07;;;18.00;99.90;;;;;;5012617;28;20026;-76
2022/08/18 02:20:21;;;;;;;6.07;5.57;;;18.00;99.90;;;;;;5013501;28;20049;-75
2022/08/18 02:22:49;;;;;;;5.97;5.47;;;17.90;99.90;;;;;;5014004;28;20092;-73
2022/08/18 02:25:16;;;;;;;6.45;5.85;;;17.90;99.90;;;;;;5018300;28;20030;-75
2022/08/18 02:27:43;;;;;;;7.18;6.47;;;17.90;99.90;;;;;;5012529;28;20037;-77
2022/08/18 02:30:13;;;;;;;6.10;5.60;;;17.90;99.90;;;;;;5012470;28;20036;-76
2022/08/18 02:32:38;;;;;;;6.70;6.05;;;17.90;99.90;;;;;;5002268;28;20049;-76
2022/08/18 02:35:06;;;;;;;6.85;6.15;;;17.90;99.90;;;;;;5012274;28;20038;-75
2022/08/18 02:37:32;;;;;;;6.45;5.72;;;17.90;99.90;;;;;;5013354;28;20033;-75
2022/08/18 02:39:58;;;;;;;6.32;5.82;;;17.90;99.90;;;;;;5012606;28;20967;-74
2022/08/18 02:42:23;;;;;;;7.68;6.15;;;17.90;99.90;;;;;;5012382;28;20030;-75
2022/08/18 02:44:49;;;;;;;6.15;5.63;;;17.90;99.90;;;;;;5012045;28;20022;-73
2022/08/18 02:47:19;;;;;;;6.45;5.88;;;17.80;99.90;;;;;;5007050;28;20034;-74
2022/08/18 02:49:44;;;;;;;6.75;6.00;;;17.90;99.90;;;;;;5010543;28;20030;-76
2022/08/18 02:52:10;;;;;;;7.70;6.15;;;17.90;99.90;;;;;;5012107;28;20475;-76
2022/08/18 02:54:36;;;;;;;6.47;5.88;;;17.90;99.90;;;;;;5010261;28;20028;-76
2022/08/18 02:57:06;;;;;;;6.88;6.05;;;18.00;99.90;;;;;;5011899;28;20025;-77
2022/08/18 02:59:32;;;;;;;6.68;6.07;;;18.00;99.90;;;;;;5012007;28;20049;-76
2022/08/18 03:01:58;;;;;;;6.53;5.93;;;18.00;99.90;;;;;;5011932;28;20026;-76
2022/08/18 03:04:27;;;;;;;6.97;5.65;;;18.10;99.90;;;;;;5008726;28;20053;-74
2022/08/18 03:06:54;;;;;;;6.20;5.60;;;18.10;99.90;;;;;;5011604;28;20026;-74
2022/08/18 03:09:20;;;;;;;6.38;5.88;;;18.10;99.90;;;;;;5012459;28;20497;-77
2022/08/18 03:11:46;;;;;;;7.05;6.45;;;18.10;99.90;;;;;;5012517;28;20025;-76
2022/08/18 03:14:13;;;;;;;6.88;6.18;;;18.20;99.90;;;;;;5016889;28;20185;-76
2022/08/18 03:16:41;;;;;;;6.82;5.95;;;18.20;99.90;;;;;;5004540;28;20061;-76
2022/08/18 03:19:07;;;;;;;5.90;5.40;;;18.20;99.90;;;;;;5011623;28;20384;-76
2022/08/18 03:21:34;;;;;;;5.80;5.30;;;18.20;99.90;;;;;;5009364;28;20474;-76
2022/08/18 03:24:01;;;;;;;5.70;5.18;;;18.20;99.90;;;;;;5011558;28;20037;-76
2022/08/18 03:26:28;;;;;;;6.55;5.95;;;18.20;99.90;;;;;;5011821;28;20490;-76
2022/08/18 03:28:54;;;;;;;6.38;5.78;;;18.20;99.90;;;;;;5011571;28;20036;-76
2022/08/18 03:31:22;;;;;;;7.07;6.18;;;18.20;99.90;;;;;;5017259;28;20379;-75
2022/08/18 03:33:50;;;;;;;5.63;5.13;;;18.20;99.90;;;;;;5012226;28;20490;-74
2022/08/18 03:36:20;;;;;;;6.97;6.28;;;18.20;99.90;;;;;;5012032;28;20030;-77
2022/08/18 03:38:47;;;;;;;;;;;18.20;99.90;;;;;;5012452;28;20120;-76
2022/08/18 03:41:16;;;;;;;7.72;6.57;;;18.20;99.90;;;;;;5008890;28;20278;-76
2022/08/18 03:43:41;;;;;;;6.50;5.78;;;18.20;99.90;;;;;;5011756;28;20060;-75
2022/08/18 03:46:10;;;;;;;6.65;5.85;;;18.10;99.90;;;;;;5011282;28;20058;-76
2022/08/18 03:48:39;;;;;;;6.70;5.88;;;18.10;99.90;;;;;;5020111;28;20055;-76
2022/08/18 03:51:14;;;;;;;6.80;6.00;;;18.10;99.90;;;;;;5009164;28;20459;-79
2022/08/18 03:53:41;;;;;;;7.07;6.32;;;18.10;99.90;;;;;;5005664;28;20076;-76
2022/08/18 03:56:15;;;;;;;6.68;6.07;;;18.00;99.90;;;;;;5010859;28;20342;-76
2022/08/18 03:58:44;;;;;;;6.97;6.38;;;18.00;99.90;;;;;;5007611;28;20172;-76
2022/08/18 04:01:14;;;;;;;7.88;6.60;;;18.00;99.90;;;;;;5010849;28;20068;-77
2022/08/18 04:03:44;;;;;;;7.75;6.72;;;18.00;99.90;;;;;;5011206;28;20034;-77
2022/08/18 04:06:17;;;;;;;6.85;6.15;;;18.00;99.90;;;;;;5011173;28;20103;-77
2022/08/18 04:08:43;;;;;;;8.75;6.80;;;18.00;99.90;;;;;;5011515;28;20038;-77
2022/08/18 04:11:11;;;;;;;6.82;6.22;;;18.00;99.90;;;;;;5010480;28;20034;-77
2022/08/18 04:13:38;;;;;;;6.43;5.82;;;18.00;99.90;;;;;;5009605;28;20034;-77
2022/08/18 04:16:04;;;;;;;6.50;5.95;;;18.00;99.90;;;;;;5009730;28;20030;-77
2022/08/18 04:18:31;;;;;;;6.43;5.53;;;18.00;99.90;;;;;;5011440;28;20382;-78
2022/08/18 04:21:01;;;;;;;7.32;6.63;;;18.00;99.90;;;;;;5010341;28;20033;-79
2022/08/18 04:23:27;;;;;;;;;;;18.00;99.90;;;;;;5012331;28;20030;-79
2022/08/18 04:25:57;;;;;;;7.57;5.78;;;18.00;99.90;;;;;;5009921;28;19914;-81
2022/08/18 04:28:23;;;;;;;7.05;6.35;;;17.90;99.90;;;;;;5007346;28;20041;-77
2022/08/18 04:30:49;;;;;;;7.32;6.72;;;17.90;99.90;;;;;;5004451;28;20034;-81
2022/08/18 04:33:15;;;;;;;8.25;6.63;;;17.90;99.90;;;;;;4999113;28;20088;-79
2022/08/18 04:35:40;;;;;;;6.65;6.00;;;17.90;99.90;;;;;;5005112;28;20093;-80
2022/08/18 04:38:06;;;;;;;8.77;6.20;;;17.90;99.90;;;;;;5002687;28;20030;-80
2022/08/18 04:40:33;;;;;;;6.90;6.30;;;17.90;99.90;;;;;;5011193;28;20045;-80
2022/08/18 04:43:00;;;;;;;6.97;6.35;;;17.90;99.90;;;;;;5000672;28;20072;-80
2022/08/18 04:45:26;;;;;;;7.32;6.63;;;18.00;99.90;;;;;;5010059;28;20036;-80
2022/08/18 04:47:52;;;;;;;7.10;6.35;;;18.00;99.90;;;;;;5004206;28;20026;-82
2022/08/18 04:50:18;;;;;;;6.78;6.10;;;18.00;99.90;;;;;;5009863;28;20065;-80
2022/08/18 04:55:28;;;;;;;6.93;6.22;;;18.00;99.90;;;;;;5010439;28;20036;-81
2022/08/18 04:57:55;;;;;;;7.90;6.70;;;18.10;99.90;;;;;;5008862;28;20154;-83
2022/08/18 05:00:21;;;;;;;7.40;6.25;;;18.10;99.90;;;;;;5010635;28;20060;-82
2022/08/18 05:02:48;;;;;;;6.85;5.95;;;18.10;99.90;;;;;;4991253;28;20022;-80
2022/08/18 05:05:14;;;;;;;7.55;6.03;;;18.20;99.90;;;;;;4992362;28;20616;-82
2022/08/18 05:07:45;;;;;;;8.63;6.80;;;18.20;99.90;;;;;;4999602;28;20030;-80
2022/08/18 05:10:11;;;;;;;10.30;7.13;;;18.30;99.90;;;;;;5010466;28;20042;-82
2022/08/18 05:12:40;;;;;;;8.00;6.05;;;18.40;99.90;;;;;;5008063;28;20018;-81
2022/08/18 05:15:07;;;;;;;6.68;6.10;;;18.50;99.90;;;;;;4989033;28;20026;-80
2022/08/18 05:17:38;;;;;;;6.82;6.15;;;18.60;99.90;;;;;;5005908;28;20084;-79
2022/08/18 05:20:07;;;;;;;6.07;5.57;;;18.80;99.90;;;;;;5010070;28;20080;-81
2022/08/18 05:22:39;;;;;;;6.67;6.07;;;18.80;99.90;;;;;;5007736;28;20022;-80
2022/08/18 05:25:09;;;;;;;8.05;6.00;;;18.90;99.90;;;;;;4995867;28;20030;-78
2022/08/18 05:27:36;;;;;;;;;;;19.10;99.90;;;;;;4994923;28;20458;-78
2022/08/18 05:30:03;;;;;;;8.70;6.05;;;19.20;99.90;;;;;;5016438;28;20005;-82
2022/08/18 05:32:33;;;;;;;6.68;5.82;;;19.40;99.90;;;;;;5010401;28;20034;-81
2022/08/18 05:35:06;;;;;;;6.00;5.50;;;19.50;99.90;;;;;;5013621;28;20034;-82
2022/08/18 05:38:00;;;;;;;8.10;5.95;;;19.60;99.90;;;;;;5012453;28;20066;-81
2022/08/18 05:40:27;;;;;;;6.60;6.07;;;19.80;99.90;;;;;;5011656;28;20053;-83
2022/08/18 05:42:56;;;;;;;6.97;6.28;;;19.80;99.90;;;;;;5012179;28;20029;-80
2022/08/18 05:45:22;;;;;;;7.00;5.47;;;19.90;99.90;;;;;;5013204;28;20034;-82
2022/08/18 05:47:48;;;;;;;7.20;6.38;;;20.00;99.90;;;;;;5011943;28;20032;-80
2022/08/18 05:50:18;;;;;;;6.50;5.65;;;20.10;99.90;;;;;;5012841;28;20042;-82
2022/08/18 05:53:10;;;;;;;10.73;6.78;;;20.30;99.90;;;;;;5010131;28;20026;-84
2022/08/18 05:58:51;;;;;;;6.38;5.75;;;20.50;99.90;;;;;;5013848;28;20076;-83
2022/08/18 06:01:40;;;;;;;6.45;5.85;;;20.50;99.90;;;;;;5008280;28;20022;-83
2022/08/18 06:04:14;;;;;;;7.28;6.13;;;20.50;99.90;;;;;;5006634;28;20030;-83
2022/08/18 06:06:42;;;;;;;6.93;6.25;;;20.60;99.90;;;;;;5004481;28;20387;-78
2022/08/18 06:09:26;;;;;;;7.10;6.05;;;20.60;99.90;;;;;;5011108;28;20079;-80
2022/08/18 06:11:57;;;;;;;9.15;7.32;;;20.60;99.90;;;;;;5010047;28;20037;-79
2022/08/18 06:14:23;;;;;;;10.13;7.40;;;20.60;99.90;;;;;;5011818;28;20034;-79
2022/08/18 06:17:17;;;;;;;7.93;6.90;;;20.70;99.90;;;;;;5013316;28;20030;-79
2022/08/18 06:20:00;;;;;;;7.43;6.57;;;20.80;99.90;;;;;;5013630;28;20125;-79
2022/08/18 06:22:38;;;;;;;10.25;7.30;;;20.80;99.90;;;;;;4996538;28;20076;-81
2022/08/18 06:25:20;;;;;;;7.82;7.05;;;20.90;99.90;;;;;;5001644;28;20084;-79
2022/08/18 06:27:57;;;;;;;9.45;7.93;;;21.00;99.90;;;;;;5013608;28;20037;-79
2022/08/18 06:30:35;;;;;;;7.68;6.88;;;21.10;99.90;;;;;;5011940;28;20033;-78
2022/08/18 06:33:33;;;;;;;10.88;7.70;;;21.20;99.90;;;;;;5012596;28;20510;-79
2022/08/18 06:36:11;;;;;;;9.43;7.55;;;21.20;99.90;;;;;;5013121;28;20030;-77
2022/08/18 06:38:39;;;;;;;7.70;7.00;;;21.20;99.90;;;;;;5020399;28;20036;-77
2022/08/18 06:41:14;;;;;;;9.73;6.93;;;21.20;99.90;;;;;;5005664;28;20022;-77
2022/08/18 06:43:50;;;;;;;8.27;7.53;;;21.20;99.90;;;;;;5012773;28;20417;-76
2022/08/18 06:46:20;;;;;;;9.82;7.93;;;21.30;99.90;;;;;;5011643;28;20478;-76
2022/08/18 06:48:53;;;;;;;8.07;7.28;;;21.20;99.90;;;;;;5010589;28;20429;-74
2022/08/18 06:51:22;;;;;;;7.28;6.57;;;21.30;99.90;;;;;;5017574;28;20057;-75
2022/08/18 06:54:04;;;;;;;7.90;6.47;;;21.30;99.90;;;;;;5014360;28;20113;-77
2022/08/18 06:56:47;;;;;;;7.60;6.90;;;21.40;99.90;;;;;;5007266;28;20083;-77
2022/08/18 06:59:31;;;;;;;10.13;7.95;;;21.60;99.90;;;;;;5011295;28;20535;-78
2022/08/18 07:02:00;;;;;;;10.45;6.60;;;21.70;99.90;;;;;;5008012;28;20057;-77
2022/08/18 07:04:42;;;;;;;9.15;8.00;;;21.80;99.90;;;;;;5016871;28;20109;-77
2022/08/18 07:07:19;;;;;;;11.57;8.77;;;22.00;99.90;;;;;;5011487;28;20034;-77
2022/08/18 07:09:45;;;;;;;13.55;8.52;;;22.10;99.90;;;;;;5005900;28;20041;-77
2022/08/18 07:12:19;;;;;;;12.77;8.27;;;22.10;99.90;;;;;;5015956;28;20033;-78
2022/08/18 07:14:49;;;;;;;10.65;8.43;;;22.20;99.90;;;;;;5011265;28;20036;-77
2022/08/18 07:17:32;;;;;;;;;;;22.20;99.90;;;;;;5011912;28;20060;-77
2022/08/18 07:20:23;;;;;;;9.40;8.13;;;22.20;99.90;;;;;;5012431;28;20017;-77
2022/08/18 07:22:52;;;;;;;8.82;7.88;;;22.30;99.90;;;;;;5004773;28;20046;-68
2022/08/18 07:25:24;;;;;;;9.52;8.23;;;22.20;99.90;;;;;;5010774;28;20026;-69
2022/08/18 07:27:51;;;;;;;8.65;7.75;;;22.20;99.90;;;;;;5011324;28;20044;-67
2022/08/18 07:30:18;;;;;;;9.88;7.72;;;22.20;99.90;;;;;;5011307;28;20038;-68
2022/08/18 07:32:53;;;;;;;11.50;7.90;;;22.30;99.90;;;;;;5003536;28;20057;-68
2022/08/18 07:35:38;;;;;;;8.77;7.45;;;22.30;99.90;;;;;;5010541;28;20045;-68
2022/08/18 07:38:19;;;;;;;8.10;7.30;;;22.30;99.90;;;;;;5010088;28;20026;-68
2022/08/18 07:41:01;;;;;;;8.95;8.02;;;22.40;99.90;;;;;;5010590;28;20061;-68
2022/08/18 07:43:40;;;;;;;9.20;7.38;;;22.30;99.90;;;;;;5010783;28;20033;-68
2022/08/18 07:46:19;;;;;;;8.90;7.00;;;22.20;99.90;;;;;;5013515;28;20025;-67
2022/08/18 07:48:45;;;;;;;9.27;6.90;;;22.10;99.90;;;;;;5009473;28;20497;-68
2022/08/18 07:51:14;;;;;;;6.85;6.20;;;22.00;99.90;;;;;;5013710;28;20133;-68
2022/08/18 07:54:02;;;;;;;8.20;6.60;;;21.90;99.90;;;;;;5011073;28;20034;-67
2022/08/18 07:56:34;;;;;;;8.25;6.38;;;21.90;99.90;;;;;;5010613;28;20026;-68
2022/08/18 07:59:15;;;;;;;7.68;6.18;;;21.80;99.90;;;;;;5009401;28;20042;-68
2022/08/18 08:01:51;;;;;;;8.32;6.50;;;21.80;99.90;;;;;;5011028;28;20077;-68
2022/08/18 08:04:20;;;;;;;8.13;6.32;;;21.70;99.90;;;;;;5009984;28;20033;-68
2022/08/18 08:06:54;;;;;;;8.10;6.85;;;21.70;99.90;;;;;;5010948;28;20025;-68
2022/08/18 08:09:29;;;;;;;8.20;6.68;;;21.60;99.90;;;;;;5010176;28;20134;-67
2022/08/18 08:12:11;;;;;;;7.30;6.57;;;21.70;99.90;;;;;;5011357;28;20026;-68
2022/08/18 08:14:45;;;;;;;8.70;6.05;;;21.60;99.90;;;;;;5009261;28;20478;-67
2022/08/18 08:17:24;;;;;;;11.02;6.53;;;21.60;99.90;;;;;;5009211;28;20080;-67
2022/08/18 08:20:02;;;;;;;6.20;5.60;;;21.50;99.90;;;;;;5010850;28;20041;-68
2022/08/18 08:22:35;;;;;;;7.03;6.32;;;21.60;99.90;;;;;;5010663;28;20029;-68
2022/08/18 08:25:13;;;;;;;10.13;8.25;;;21.60;99.90;;;;;;5004579;28;20698;-67
2022/08/18 08:27:59;;;;;;;10.27;7.75;;;21.70;99.90;;;;;;5015710;28;20040;-68
2022/08/18 08:30:29;;;;;;;8.05;7.25;;;21.70;99.90;;;;;;5015449;28;20038;-69
2022/08/18 08:33:08;;;;;;;9.02;7.65;;;21.60;99.90;;;;;;5010615;28;20026;-69
2022/08/18 08:35:57;;;;;;;10.30;7.70;;;21.70;99.90;;;;;;5010481;28;20034;-68
2022/08/18 08:38:46;;;;;;;7.93;7.13;;;21.70;99.90;;;;;;5005180;28;20056;-68
2022/08/18 08:41:21;;;;;;;8.52;7.68;;;21.80;99.90;;;;;;5009856;28;20034;-68
2022/08/18 08:44:07;;;;;;;10.02;8.52;;;22.00;99.90;;;;;;5018493;28;20029;-68
2022/08/18 08:46:44;;;;;;;7.43;6.63;;;22.10;99.90;;;;;;5003602;28;20104;-68
2022/08/18 08:49:42;;;;;;;9.32;6.88;;;22.30;99.90;;;;;;5009396;28;20402;-68
2022/08/18 08:52:15;;;;;;;10.70;7.53;;;22.50;99.90;;;;;;5012438;28;20022;-67
2022/08/18 08:55:04;;;;;;;6.95;6.32;;;22.90;99.90;;;;;;5010708;28;20034;-68
2022/08/18 08:57:38;;;;;;;10.80;6.57;;;23.00;99.90;;;;;;4993715;28;20052;-68
2022/08/18 09:00:07;;;;;;;8.35;6.85;;;23.10;99.90;;;;;;5009849;28;20038;-68
2022/08/18 09:03:04;;;;;;;7.82;6.38;;;23.20;99.90;;;;;;5011600;28;20029;-68
2022/08/18 09:05:47;;;;;;;9.80;6.60;;;23.20;99.90;;;;;;4999612;28;20436;-68
2022/08/18 09:08:34;;;;;;;9.02;7.22;;;23.30;99.90;;;;;;5013352;28;20386;-67
2022/08/18 09:11:11;;;;;;;9.95;6.80;;;23.40;99.90;;;;;;5014121;28;20426;-67
2022/08/18 09:13:55;;;;;;;8.45;7.15;;;23.50;99.90;;;;;;5013270;28;20107;-67
2022/08/18 09:16:42;;;;;;;6.95;6.25;;;23.70;99.90;;;;;;5012233;28;20037;-68
2022/08/18 09:19:26;;;;;;;8.65;7.75;;;23.70;99.90;;;;;;5010389;28;20068;-68
2022/08/18 09:22:11;;;;;;;7.93;7.05;;;23.80;99.90;;;;;;5013648;28;20034;-67
2022/08/18 09:24:46;;;;;;;7.35;6.13;;;23.90;99.90;;;;;;5013356;28;20028;-69
2022/08/18 09:27:25;;;;;;;10.50;7.05;;;24.00;99.90;;;;;;5018658;28;21452;-69
2022/08/18 09:29:57;;;;;;;8.57;7.68;;;24.00;99.90;;;;;;5017368;28;20038;-68
2022/08/18 09:32:23;;;;;;;7.40;6.70;;;24.00;99.90;;;;;;5018175;28;20096;-69
2022/08/18 09:34:55;;;;;;;8.55;6.78;;;24.00;99.90;;;;;;5018548;28;20038;-69
2022/08/18 09:44:08;;;;;;;8.93;7.63;;;24.10;99.90;;;;;;5006869;28;20371;-68
2022/08/18 09:46:40;;;;;;;9.63;6.78;;;24.20;99.90;;;;;;5012252;28;20059;-68
2022/08/18 09:49:24;;;;;;;11.95;7.93;;;24.40;99.90;;;;;;5013188;28;20058;-67
2022/08/18 09:52:20;;;;;;;12.43;9.15;;;24.80;99.90;;;;;;5013485;28;20033;-68
2022/08/18 09:54:59;;;;;;;10.32;9.32;;;25.10;99.90;;;;;;5013195;28;20033;-68
2022/08/18 09:57:27;;;;;;;10.67;8.80;;;25.10;99.90;;;;;;5010818;28;20113;-68
2022/08/18 09:59:55;;;;;;;10.07;8.82;;;25.10;99.90;;;;;;5012896;28;20034;-68
2022/08/18 10:02:30;;;;;;;11.40;7.97;;;25.10;99.90;;;;;;5012101;28;20473;-68
2022/08/18 10:05:26;;;;;;;8.93;7.97;;;25.30;99.90;;;;;;5013366;28;20029;-68
2022/08/18 10:08:04;;;;;;;10.07;8.88;;;25.40;99.90;;;;;;4984870;28;20038;-68
2022/08/18 10:10:43;;;;;;;11.43;9.60;;;25.50;99.90;;;;;;5012582;28;20037;-68
2022/08/18 10:13:12;;;;;;;10.10;9.20;;;25.30;99.90;;;;;;5009909;28;20030;-67
2022/08/18 10:16:04;;;;;;;13.57;8.80;;;25.30;99.90;;;;;;5012005;28;20029;-67
2022/08/18 10:18:49;;;;;;;9.60;8.70;;;25.30;99.90;;;;;;5004307;28;20029;-68
2022/08/18 10:21:26;;;;;;;9.00;8.20;;;25.20;99.90;;;;;;5005919;28;20037;-68
2022/08/18 10:23:52;;;;;;;9.57;7.93;;;25.20;99.90;;;;;;5013508;28;20087;-68
2022/08/18 10:26:49;;;;;;;11.45;8.02;;;25.30;99.90;;;;;;5012412;28;20421;-68
2022/08/18 10:29:27;;;;;;;9.38;8.23;;;25.60;99.90;;;;;;5004374;28;20081;-68
2022/08/18 10:31:55;;;;;;;8.30;7.50;;;25.70;99.90;;;;;;5013586;28;20026;-69
2022/08/18 10:34:40;;;;;;;9.73;7.20;;;25.80;99.90;;;;;;5012568;28;20041;-68
2022/08/18 10:37:17;;;;;;;10.52;9.27;;;25.80;99.90;;;;;;5011396;28;20037;-67
2022/08/18 10:40:08;;;;;;;9.10;8.18;;;25.90;99.90;;;;;;5012611;28;20497;-68
2022/08/18 10:42:51;;;;;;;13.20;9.10;;;25.70;99.90;;;;;;5007357;28;20196;-69
2022/08/18 10:45:31;;;;;;;8.95;7.57;;;25.80;99.90;;;;;;5010710;28;20482;-68
2022/08/18 10:48:27;;;;;;;9.73;8.73;;;26.00;99.90;;;;;;5010083;28;20474;-68
2022/08/18 10:50:58;;;;;;;10.43;9.13;;;26.20;99.80;;;;;;5012424;28;20033;-68
2022/08/18 10:53:38;;;;;;;8.07;7.25;;;26.40;99.30;;;;;;5013233;28;20598;-68
2022/08/18 10:56:22;;;;;;;10.07;8.68;;;26.50;99.90;;;;;;5004704;28;20106;-68
2022/08/18 10:59:12;;;;;;;7.88;7.28;;;26.50;98.60;;;;;;5011695;28;20141;-76
2022/08/18 11:01:52;;;;;;;8.48;7.68;;;26.50;98.70;;;;;;5009303;28;20034;-75
2022/08/18 11:04:27;;;;;;;8.88;7.50;;;26.80;98.50;;;;;;5010710;28;20112;-75
2022/08/18 11:07:05;;;;;;;8.52;7.72;;;26.90;98.00;;;;;;4999469;28;20030;-74
2022/08/18 11:09:32;;;;;;;11.27;7.60;;;26.80;97.90;;;;;;4993987;28;20033;-75
2022/08/18 11:12:00;;;;;;;10.50;7.85;;;26.50;97.80;;;;;;5010277;28;20109;-74
2022/08/18 11:14:38;;;;;;;8.52;7.63;;;26.30;97.90;;;;;;5005983;28;20026;-74
2022/08/18 11:17:30;;;;;;;8.15;7.35;;;26.30;98.20;;;;;;5006049;28;20037;-74
2022/08/18 11:19:59;;;;;;;7.53;6.82;;;26.20;97.90;;;;;;5010204;28;20378;-75
2022/08/18 11:22:31;;;;;;;7.70;7.05;;;26.40;98.30;;;;;;5010766;28;20198;-74
2022/08/18 11:24:57;;;;;;;8.77;6.78;;;26.80;98.10;;;;;;5010755;28;20537;-74
2022/08/18 11:27:27;;;;;;;9.45;7.90;;;27.30;97.40;;;;;;5018128;28;20403;-75
2022/08/18 11:29:53;;;;;;;8.18;7.40;;;27.90;96.40;;;;;;5008524;28;20092;-74
2022/08/18 11:32:24;;;;;;;12.98;8.77;;;27.90;96.00;;;;;;5017473;28;20583;-74
2022/08/18 11:35:14;;;;;;;8.70;7.90;;;27.80;95.20;;;;;;5013632;28;20025;-74
2022/08/18 11:37:40;;;;;;;10.85;8.75;;;27.60;95.30;;;;;;5010565;28;20403;-74
2022/08/18 11:40:26;;;;;;;9.30;8.40;;;27.60;94.90;;;;;;5010464;28;20120;-77
2022/08/18 11:43:01;;;;;;;11.50;9.98;;;27.40;95.00;;;;;;5014486;28;20022;-76
2022/08/18 11:45:33;;;;;;;9.43;8.40;;;27.20;95.20;;;;;;5005345;28;20111;-76
2022/08/18 11:48:01;;;;;;;9.60;8.63;;;27.00;95.70;;;;;;5011827;28;21713;-75
2022/08/18 11:50:31;;;;;;;10.00;9.02;;;26.90;95.90;;;;;;5007305;28;20045;-75
2022/08/18 11:53:23;;;;;;;9.63;7.68;;;26.90;96.00;;;;;;5009493;28;20112;-75
2022/08/18 11:56:27;;;;;;;9.13;8.07;;;26.80;96.10;;;;;;5011457;28;20550;-75
2022/08/18 11:59:27;;;;;;;10.40;9.50;;;26.80;95.80;;;;;;4960570;28;20153;-74
2022/08/18 12:01:55;;;;;;;8.52;7.72;;;26.90;95.60;;;;;;5009664;28;20029;-76
2022/08/18 12:04:38;;;;;;;9.35;8.55;;;27.00;95.70;;;;;;5005522;28;20038;-74
2022/08/18 12:07:11;;;;;;;11.18;9.93;;;27.00;95.40;;;;;;5003760;28;20030;-75
2022/08/18 12:09:42;;;;;;;14.70;11.10;;;26.90;95.00;;;;;;5004570;28;20096;-75
2022/08/18 12:12:24;;;;;;;12.98;9.00;;;26.70;95.40;;;;;;5000866;28;20053;-74
2022/08/18 12:14:55;;;;;;;9.07;8.23;;;26.70;95.10;;;;;;5010446;28;20030;-75
2022/08/18 12:17:21;;;;;;;10.20;7.93;;;26.90;94.90;;;;;;5009250;28;20030;-75
2022/08/18 12:19:48;;;;;;;8.40;7.57;;;27.30;94.60;;;;;;5010530;28;20080;-75
2022/08/18 12:22:23;;;;;;;8.63;7.72;;;27.60;94.20;;;;;;5007430;28;20041;-76
2022/08/18 12:24:50;;;;;;;9.18;7.70;;;27.90;93.30;;;;;;5009601;28;20041;-75
2022/08/18 12:27:18;;;;;;;7.68;6.50;;;28.30;92.30;;;;;;5012559;28;20029;-74
2022/08/18 12:29:44;;;;;;;8.50;7.70;;;28.60;92.40;;;;;;5010106;28;20034;-75
2022/08/18 12:32:10;;;;;;;8.93;8.02;;;28.80;91.70;;;;;;5011775;28;20044;-75
2022/08/18 12:34:36;;;;;;;10.18;8.30;;;29.00;91.50;;;;;;5012759;28;20030;-68
2022/08/18 12:37:02;;;;;;;10.25;8.70;;;29.00;91.10;;;;;;5013174;28;20029;-68
2022/08/18 12:39:29;;;;;;;9.13;7.47;;;28.90;90.80;;;;;;5012825;28;20684;-68
2022/08/18 12:41:56;;;;;;;9.13;8.00;;;28.90;90.50;;;;;;5011565;28;20034;-68
2022/08/18 12:44:22;;;;;;;9.55;8.55;;;28.90;90.40;;;;;;5009200;28;20038;-67
2022/08/18 12:46:48;;;;;;;9.88;7.65;;;28.90;90.40;;;;;;5008520;28;20486;-68
2022/08/18 12:49:16;;;;;;;8.13;7.30;;;28.70;90.30;;;;;;5013734;28;20037;-67
2022/08/18 12:51:42;;;;;;;8.30;7.50;;;28.80;90.50;;;;;;5010641;28;20160;-69
2022/08/18 12:54:08;;;;;;;11.43;8.13;;;29.10;88.80;;;;;;5012103;28;20030;-66
2022/08/18 12:56:34;;;;;;;7.53;6.70;;;29.20;87.60;;;;;;5006018;28;20038;-68
2022/08/18 12:59:02;;;;;;;10.10;7.47;;;29.10;88.00;;;;;;5012976;28;20057;-67
2022/08/18 13:01:28;;;;;;;11.50;7.80;;;29.20;88.40;;;;;;5013560;28;20037;-68
2022/08/18 13:03:55;;;;;;;8.80;7.28;;;29.10;89.80;;;;;;5012148;28;20030;-68
2022/08/18 13:06:22;;;;;;;10.98;8.07;;;29.00;88.40;;;;;;5011380;28;20040;-67
2022/08/18 13:08:49;;;;;;;10.40;8.77;;;28.70;89.00;;;;;;5011904;28;20037;-68
2022/08/18 13:11:15;;;;;;;14.68;8.73;;;28.70;89.00;;;;;;5012144;28;20037;-69
2022/08/18 13:13:41;;;;;;;10.45;9.35;;;28.60;89.20;;;;;;5010453;28;20026;-68
2022/08/18 13:16:07;;;;;;;8.10;7.15;;;28.80;88.50;;;;;;5009274;28;20038;-68
2022/08/18 13:18:34;;;;;;;8.27;7.57;;;29.00;88.50;;;;;;5010549;28;20096;-67
2022/08/18 13:21:02;;;;;;;10.68;7.75;;;29.30;87.50;;;;;;5008480;28;20132;-69
2022/08/18 13:23:29;;;;;;;9.02;7.20;;;29.40;86.40;;;;;;5006280;28;20064;-67
2022/08/18 13:25:56;;;;;;;8.70;7.32;;;29.50;86.20;;;;;;5013501;28;20033;-69
2022/08/18 13:28:23;;;;;;;8.60;7.88;;;29.60;85.30;;;;;;5005627;28;20041;-69
2022/08/18 13:30:49;;;;;;;11.88;7.28;;;29.80;85.30;;;;;;5013544;28;20038;-69
2022/08/18 13:33:17;;;;;;;12.65;8.38;;;29.80;85.00;;;;;;5012643;28;20062;-69